Time;durP1;ratioP1;P1;durP2;ratioP2;P2;SDS_P1;SDS_P2;PMS_P1;PMS_P2;Temp;Humidity;BMP_temperature;BMP_pressure;BME280_temperature;BME280_humidity;BME280_pressure;Samples;Min_cycle;Max_cycle;Signal;HPM_P1;HPM_P2
2023/06/03 00:00:24;;;;;;;7.63;3.00;;;;;;;;;;5061286;27;92564;-79
2023/06/03 00:02:53;;;;;;;8.45;2.75;;;;;;;;;;5066693;27;92809;-78
2023/06/03 00:05:21;;;;;;;8.20;2.42;;;;;;;;;;5073438;27;92420;-77
2023/06/03 00:07:48;;;;;;;7.90;2.47;;;;;;;;;;5082014;27;94433;-79
2023/06/03 00:10:15;;;;;;;11.25;2.50;;;;;;;;;;5073516;27;92324;-78
2023/06/03 00:12:41;;;;;;;12.50;3.15;;;;;;;;;;5073591;27;92215;-79
2023/06/03 00:15:08;;;;;;;9.18;2.83;;;;;;;;;;5081194;27;92960;-79
2023/06/03 00:17:34;;;;;;;8.73;2.65;;;;;;;;;;5080392;27;92460;-78
2023/06/03 00:20:09;;;;;;;11.63;2.70;;;;;;;;;;5076741;27;92364;-79
2023/06/03 00:22:38;;;;;;;8.02;2.58;;;;;;;;;;5062792;27;92600;-79
2023/06/03 00:25:07;;;;;;;7.80;2.40;;;;;;;;;;5065702;27;91701;-79
2023/06/03 00:27:37;;;;;;;8.55;2.60;;;;;;;;;;5071800;27;94477;-79
2023/06/03 00:30:04;;;;;;;12.27;2.70;;;;;;;;;;5084531;27;94533;-80
2023/06/03 00:32:30;;;;;;;15.57;3.15;;;;;;;;;;5081857;27;94783;-79
2023/06/03 00:34:59;;;;;;;10.98;3.00;;;;;;;;;;5074215;27;95607;-79
2023/06/03 00:37:26;;;;;;;;;;;;;;;;;;5063489;27;92124;-77
2023/06/03 00:39:53;;;;;;;11.63;2.58;;;;;;;;;;5068259;27;111682;-79
2023/06/03 00:42:19;;;;;;;9.10;2.78;;;;;;;;;;5065621;27;93039;-79
2023/06/03 00:44:46;;;;;;;8.35;2.65;;;;;;;;;;5045274;27;92185;-80
2023/06/03 00:47:13;;;;;;;8.32;2.80;;;;;;;;;;5045712;27;95014;-80
2023/06/03 00:49:40;;;;;;;10.68;2.90;;;;;;;;;;5068417;27;91455;-79
2023/06/03 00:52:07;;;;;;;10.20;2.55;;;;;;;;;;5062732;27;94248;-79
2023/06/03 00:54:33;;;;;;;8.88;2.83;;;;;;;;;;5064642;27;93609;-79
2023/06/03 00:57:04;;;;;;;9.02;2.63;;;;;;;;;;5062985;27;95128;-79
2023/06/03 00:59:31;;;;;;;6.72;2.88;;;;;;;;;;5069380;27;97394;-79
2023/06/03 01:01:57;;;;;;;9.25;2.40;;;;;;;;;;5071581;27;92363;-79
2023/06/03 01:04:28;;;;;;;8.95;2.72;;;;;;;;;;5064341;27;91980;-78
2023/06/03 01:06:55;;;;;;;7.13;2.72;;;;;;;;;;5063174;27;94866;-79
2023/06/03 01:09:29;;;;;;;9.07;2.85;;;;;;;;;;5076526;27;92627;-79
2023/06/03 01:12:02;;;;;;;6.93;2.50;;;;;;;;;;5080986;27;92780;-79
2023/06/03 01:14:34;;;;;;;7.32;2.88;;;;;;;;;;5066502;27;94565;-79
2023/06/03 01:17:09;;;;;;;5.82;2.63;;;;;;;;;;5072498;27;93103;-79
2023/06/03 01:19:47;;;;;;;7.60;2.88;;;;;;;;;;5063015;27;95288;-79
2023/06/03 01:22:14;;;;;;;6.53;2.70;;;;;;;;;;5069688;27;95570;-79
2023/06/03 01:24:42;;;;;;;7.40;2.50;;;;;;;;;;5083931;27;92027;-80
2023/06/03 01:27:12;;;;;;;8.52;3.00;;;;;;;;;;5084311;27;92700;-79
2023/06/03 01:29:42;;;;;;;6.75;3.10;;;;;;;;;;5080852;27;92153;-79
2023/06/03 01:32:10;;;;;;;7.78;3.17;;;;;;;;;;5072019;27;93169;-79
2023/06/03 01:34:41;;;;;;;6.95;2.78;;;;;;;;;;5067825;27;94667;-80
2023/06/03 01:37:09;;;;;;;7.72;2.70;;;;;;;;;;5052508;27;92275;-80
2023/06/03 01:39:39;;;;;;;6.68;2.55;;;;;;;;;;5069193;27;94306;-79
2023/06/03 01:42:07;;;;;;;7.88;2.90;;;;;;;;;;5068411;27;93129;-79
2023/06/03 01:44:37;;;;;;;5.75;2.70;;;;;;;;;;5082522;27;92213;-79
2023/06/03 01:47:04;;;;;;;6.85;2.80;;;;;;;;;;5079317;27;95310;-80
2023/06/03 01:49:35;;;;;;;7.68;3.08;;;;;;;;;;5082816;27;95216;-80
2023/06/03 01:52:02;;;;;;;6.70;2.63;;;;;;;;;;5082289;27;92218;-79
2023/06/03 01:54:30;;;;;;;5.85;2.65;;;;;;;;;;5076582;27;92645;-80
2023/06/03 01:56:57;;;;;;;9.52;3.00;;;;;;;;;;5073117;27;93068;-79
2023/06/03 01:59:24;;;;;;;7.70;3.00;;;;;;;;;;5061754;27;94984;-80
2023/06/03 02:01:55;;;;;;;8.07;3.10;;;;;;;;;;5061018;27;94843;-80
2023/06/03 02:04:24;;;;;;;7.68;2.72;;;;;;;;;;5062076;27;91367;-81
2023/06/03 02:06:55;;;;;;;7.55;2.80;;;;;;;;;;5060466;27;94629;-80
2023/06/03 02:09:24;;;;;;;7.43;2.80;;;;;;;;;;5064990;27;95391;-80
2023/06/03 02:11:52;;;;;;;9.23;2.90;;;;;;;;;;5072209;27;94452;-80
2023/06/03 02:14:19;;;;;;;6.75;2.55;;;;;;;;;;5082102;27;97212;-79
2023/06/03 02:16:46;;;;;;;8.05;2.70;;;;;;;;;;5071286;27;92723;-80
2023/06/03 02:19:19;;;;;;;6.80;2.70;;;;;;;;;;5064601;27;92144;-80
2023/06/03 02:21:46;;;;;;;6.32;2.90;;;;;;;;;;5061102;27;94841;-80
2023/06/03 02:24:16;;;;;;;8.73;3.05;;;;;;;;;;5062996;27;92015;-79
2023/06/03 02:26:52;;;;;;;10.05;3.13;;;;;;;;;;5060524;27;95446;-80
2023/06/03 02:29:19;;;;;;;8.85;2.70;;;;;;;;;;5079593;27;94705;-80
2023/06/03 02:31:46;;;;;;;7.07;2.83;;;;;;;;;;5061327;27;92180;-81
2023/06/03 02:34:13;;;;;;;8.00;2.83;;;;;;;;;;5073433;27;95842;-81
2023/06/03 02:36:39;;;;;;;7.07;2.60;;;;;;;;;;5062078;27;97884;-80
2023/06/03 02:39:07;;;;;;;7.40;2.83;;;;;;;;;;5081457;27;92026;-80
2023/06/03 02:41:33;;;;;;;7.80;3.08;;;;;;;;;;5072403;27;92210;-81
2023/06/03 02:44:00;;;;;;;6.90;2.78;;;;;;;;;;5082189;27;92600;-80
2023/06/03 02:46:27;;;;;;;5.93;2.38;;;;;;;;;;5081574;27;92770;-80
2023/06/03 02:48:54;;;;;;;5.30;2.70;;;;;;;;;;5080528;27;93025;-81
2023/06/03 02:51:21;;;;;;;7.05;2.80;;;;;;;;;;5068077;27;92387;-80
2023/06/03 02:53:47;;;;;;;7.30;2.92;;;;;;;;;;5061879;27;94578;-80
2023/06/03 02:56:14;;;;;;;6.53;2.85;;;;;;;;;;5049622;27;95273;-80
2023/06/03 02:58:41;;;;;;;9.20;2.65;;;;;;;;;;5081222;27;92715;-81
2023/06/03 03:01:08;;;;;;;9.02;3.20;;;;;;;;;;5066409;27;94617;-81
2023/06/03 03:03:36;;;;;;;7.93;3.08;;;;;;;;;;5061806;27;92495;-81
2023/06/03 03:06:11;;;;;;;7.60;2.70;;;;;;;;;;5061162;27;94970;-81
2023/06/03 03:08:38;;;;;;;9.82;3.08;;;;;;;;;;5064794;27;95659;-81
2023/06/03 03:11:06;;;;;;;8.23;2.88;;;;;;;;;;5075791;27;92551;-80
2023/06/03 03:13:33;;;;;;;6.18;2.83;;;;;;;;;;5075404;27;92795;-80
2023/06/03 03:16:12;;;;;;;;;;;;;;;;;;5081746;27;95057;-80
2023/06/03 03:18:41;;;;;;;6.95;2.67;;;;;;;;;;5083050;27;91537;-80
2023/06/03 03:21:09;;;;;;;8.18;2.78;;;;;;;;;;5046210;27;93890;-80
2023/06/03 03:23:36;;;;;;;7.13;2.80;;;;;;;;;;5067442;27;92508;-80
2023/06/03 03:26:05;;;;;;;7.25;3.28;;;;;;;;;;5062657;27;94621;-80
2023/06/03 03:28:35;;;;;;;8.65;2.80;;;;;;;;;;5077756;27;95514;-81
2023/06/03 03:31:04;;;;;;;8.50;3.15;;;;;;;;;;5069946;27;92282;-81
2023/06/03 03:33:33;;;;;;;7.05;2.83;;;;;;;;;;5061824;27;94889;-81
2023/06/03 03:36:08;;;;;;;9.05;3.22;;;;;;;;;;5063984;27;95245;-80
2023/06/03 03:38:37;;;;;;;7.95;2.60;;;;;;;;;;5064256;27;92678;-81
2023/06/03 03:41:07;;;;;;;6.18;2.60;;;;;;;;;;5061923;27;93870;-80
2023/06/03 03:43:36;;;;;;;7.40;2.80;;;;;;;;;;5078924;27;95176;-80
2023/06/03 03:46:07;;;;;;;8.23;2.60;;;;;;;;;;5083365;27;92102;-80
2023/06/03 03:48:34;;;;;;;8.27;3.05;;;;;;;;;;5080139;27;95084;-80
2023/06/03 03:51:01;;;;;;;6.10;2.50;;;;;;;;;;5062566;27;94741;-80
2023/06/03 03:53:35;;;;;;;6.35;2.75;;;;;;;;;;5083917;27;97333;-80
2023/06/03 03:56:15;;;;;;;7.63;2.85;;;;;;;;;;5075948;27;95164;-80
2023/06/03 03:58:46;;;;;;;8.52;2.70;;;;;;;;;;5064344;27;92141;-80
2023/06/03 04:01:22;;;;;;;7.80;3.03;;;;;;;;;;5062343;27;94437;-80
2023/06/03 04:03:57;;;;;;;7.93;2.88;;;;;;;;;;5063412;27;94573;-80
2023/06/03 04:06:29;;;;;;;6.72;2.42;;;;;;;;;;5079370;27;92094;-79
2023/06/03 04:08:56;;;;;;;6.05;2.95;;;;;;;;;;5067970;27;92698;-80
2023/06/03 04:11:26;;;;;;;6.13;2.50;;;;;;;;;;5066728;27;92602;-79
2023/06/03 04:13:54;;;;;;;6.75;2.40;;;;;;;;;;5063072;27;94355;-80
2023/06/03 04:16:38;;;;;;;7.80;2.72;;;;;;;;;;5060988;27;97717;-80
2023/06/03 04:19:06;;;;;;;8.07;2.80;;;;;;;;;;5064449;27;92082;-81
2023/06/03 04:21:37;;;;;;;6.57;2.58;;;;;;;;;;5063911;27;95045;-80
2023/06/03 04:24:08;;;;;;;5.82;2.40;;;;;;;;;;5063127;27;94857;-82
2023/06/03 04:26:34;;;;;;;5.88;2.40;;;;;;;;;;5064326;27;92225;-81
2023/06/03 04:29:02;;;;;;;5.88;2.70;;;;;;;;;;5060102;27;94543;-81
2023/06/03 04:31:28;;;;;;;6.88;3.22;;;;;;;;;;5065580;27;94737;-81
2023/06/03 04:33:56;;;;;;;6.32;2.53;;;;;;;;;;5056369;27;92975;-80
2023/06/03 04:36:23;;;;;;;6.57;2.38;;;;;;;;;;5051597;27;95086;-80
2023/06/03 04:38:51;;;;;;;7.47;2.63;;;;;;;;;;5078419;27;92215;-80
2023/06/03 04:41:18;;;;;;;8.13;2.75;;;;;;;;;;5062103;27;94564;-80
2023/06/03 04:43:47;;;;;;;7.50;2.60;;;;;;;;;;5054624;27;95211;-80
2023/06/03 04:46:15;;;;;;;13.90;2.65;;;;;;;;;;5065925;27;92187;-81
2023/06/03 04:48:45;;;;;;;10.88;2.70;;;;;;;;;;5082575;27;94458;-81
2023/06/03 04:51:12;;;;;;;10.55;2.80;;;;;;;;;;5082672;27;95379;-80
2023/06/03 04:53:41;;;;;;;7.35;2.50;;;;;;;;;;5075300;27;92313;-80
2023/06/03 04:56:09;;;;;;;10.63;2.40;;;;;;;;;;5075086;27;94683;-80
2023/06/03 04:58:39;;;;;;;9.30;2.80;;;;;;;;;;5083536;27;91850;-79
2023/06/03 05:01:11;;;;;;;11.43;2.40;;;;;;;;;;5080741;27;98271;-79
2023/06/03 05:03:40;;;;;;;8.50;2.30;;;;;;;;;;5082712;27;94067;-79
2023/06/03 05:06:10;;;;;;;12.18;2.50;;;;;;;;;;5078263;27;94409;-79
2023/06/03 05:08:41;;;;;;;7.22;2.47;;;;;;;;;;5062012;27;96857;-79
2023/06/03 05:11:08;;;;;;;4.03;1.83;;;;;;;;;;5065097;27;95224;-79
2023/06/03 05:13:35;;;;;;;5.03;1.77;;;;;;;;;;5080673;27;92040;-80
2023/06/03 05:16:02;;;;;;;6.85;2.03;;;;;;;;;;5062107;27;94956;-81
2023/06/03 05:18:30;;;;;;;7.65;2.13;;;;;;;;;;5076908;27;92206;-80
2023/06/03 05:20:56;;;;;;;7.82;2.03;;;;;;;;;;5063591;27;94829;-81
2023/06/03 05:23:23;;;;;;;6.85;1.98;;;;;;;;;;5075294;27;94204;-81
2023/06/03 05:25:50;;;;;;;8.18;2.10;;;;;;;;;;5080695;27;92140;-80
2023/06/03 05:28:16;;;;;;;6.63;2.08;;;;;;;;;;5071645;27;95293;-81
2023/06/03 05:30:43;;;;;;;9.35;2.45;;;;;;;;;;5058999;27;97562;-81
2023/06/03 05:33:22;;;;;;;5.72;1.70;;;;;;;;;;5048506;27;92010;-80
2023/06/03 05:35:49;;;;;;;5.45;1.50;;;;;;;;;;5079878;27;94751;-80
2023/06/03 05:38:15;;;;;;;6.18;1.90;;;;;;;;;;5065611;27;92182;-80
2023/06/03 05:40:43;;;;;;;7.25;1.98;;;;;;;;;;5081294;27;94954;-81
2023/06/03 05:43:10;;;;;;;5.35;1.83;;;;;;;;;;5081902;27;95250;-81
2023/06/03 05:45:37;;;;;;;5.32;1.80;;;;;;;;;;5082310;27;92151;-80
2023/06/03 05:48:03;;;;;;;6.40;1.90;;;;;;;;;;5065281;27;94839;-81
2023/06/03 05:50:33;;;;;;;5.72;1.70;;;;;;;;;;5061493;27;94796;-81
2023/06/03 05:53:01;;;;;;;5.68;1.80;;;;;;;;;;5061476;27;92519;-81
2023/06/03 05:55:27;;;;;;;5.35;1.60;;;;;;;;;;5061877;27;95182;-81
2023/06/03 05:57:55;;;;;;;4.43;1.70;;;;;;;;;;5068224;27;92990;-81
2023/06/03 06:00:22;;;;;;;8.20;2.15;;;;;;;;;;5078350;27;94518;-81
2023/06/03 06:02:53;;;;;;;6.50;1.90;;;;;;;;;;5066679;27;93099;-81
2023/06/03 06:05:20;;;;;;;8.73;1.67;;;;;;;;;;5081905;27;92952;-81
2023/06/03 06:07:46;;;;;;;4.55;1.45;;;;;;;;;;5082499;27;93240;-81
2023/06/03 06:10:13;;;;;;;4.00;1.40;;;;;;;;;;5080518;27;92711;-81
2023/06/03 06:12:40;;;;;;;6.28;1.60;;;;;;;;;;5064635;27;91453;-82
2023/06/03 06:15:08;;;;;;;5.50;1.40;;;;;;;;;;5060464;27;92866;-81
2023/06/03 06:17:37;;;;;;;5.32;1.77;;;;;;;;;;5068512;27;94920;-81
2023/06/03 06:20:04;;;;;;;4.50;1.60;;;;;;;;;;5083300;27;94554;-82
2023/06/03 06:22:33;;;;;;;5.45;1.60;;;;;;;;;;5081061;27;95553;-81
2023/06/03 06:24:59;;;;;;;5.55;1.50;;;;;;;;;;5081133;27;92804;-81
2023/06/03 06:27:28;;;;;;;4.72;1.80;;;;;;;;;;5054171;27;95057;-81
2023/06/03 06:29:54;;;;;;;4.38;1.40;;;;;;;;;;5081427;27;95487;-81
2023/06/03 06:32:22;;;;;;;5.47;1.60;;;;;;;;;;5064534;27;92035;-81
2023/06/03 06:34:49;;;;;;;5.18;1.60;;;;;;;;;;5072596;27;94736;-81
2023/06/03 06:37:17;;;;;;;4.85;1.70;;;;;;;;;;5072203;27;94518;-81
2023/06/03 06:39:46;;;;;;;6.60;1.50;;;;;;;;;;5081154;27;92418;-80
2023/06/03 06:42:33;;;;;;;4.47;1.33;;;;;;;;;;5084087;27;94657;-81
2023/06/03 06:45:21;;;;;;;6.53;1.52;;;;;;;;;;5071118;27;94568;-80
2023/06/03 06:47:48;;;;;;;5.05;1.40;;;;;;;;;;5062299;27;94485;-81
2023/06/03 06:50:34;;;;;;;5.38;1.40;;;;;;;;;;5060542;27;94767;-80
2023/06/03 06:53:03;;;;;;;5.00;1.60;;;;;;;;;;5059601;27;92146;-81
2023/06/03 06:55:40;;;;;;;4.68;1.38;;;;;;;;;;5074766;27;94118;-81
2023/06/03 06:58:10;;;;;;;4.40;1.40;;;;;;;;;;5080682;27;95203;-82
2023/06/03 07:00:37;;;;;;;5.55;1.50;;;;;;;;;;5062683;27;92045;-81
2023/06/03 07:03:06;;;;;;;4.15;1.42;;;;;;;;;;5063439;27;91984;-78
2023/06/03 07:05:33;;;;;;;6.47;1.60;;;;;;;;;;5061850;27;92243;-79
2023/06/03 07:07:59;;;;;;;5.57;1.50;;;;;;;;;;5060833;27;94582;-80
2023/06/03 07:10:27;;;;;;;4.15;1.42;;;;;;;;;;5076029;27;95934;-80
2023/06/03 07:12:57;;;;;;;7.00;1.77;;;;;;;;;;5065693;27;92174;-80
2023/06/03 07:15:24;;;;;;;3.72;1.42;;;;;;;;;;5077363;27;94640;-81
2023/06/03 07:17:51;;;;;;;;;;;;;;;;;;5060664;27;95381;-80
2023/06/03 07:20:18;;;;;;;2.83;1.20;;;;;;;;;;5061454;27;92250;-79
2023/06/03 07:22:46;;;;;;;8.10;1.63;;;;;;;;;;5078941;27;94715;-80
2023/06/03 07:25:29;;;;;;;3.60;1.42;;;;;;;;;;5082951;27;95764;-80
2023/06/03 07:27:55;;;;;;;5.50;2.08;;;;;;;;;;5067947;27;92183;-79
2023/06/03 07:30:22;;;;;;;5.20;1.35;;;;;;;;;;5075686;27;92707;-79
2023/06/03 07:32:53;;;;;;;4.75;1.40;;;;;;;;;;5079446;27;92678;-79
2023/06/03 07:35:20;;;;;;;7.03;1.50;;;;;;;;;;5066963;27;95262;-79
2023/06/03 07:37:47;;;;;;;6.90;1.60;;;;;;;;;;5079718;27;94899;-79
2023/06/03 07:40:17;;;;;;;6.22;1.50;;;;;;;;;;5062209;27;92358;-78
2023/06/03 07:42:44;;;;;;;5.82;2.13;;;;;;;;;;5081162;27;95132;-78
2023/06/03 07:45:15;;;;;;;6.72;1.63;;;;;;;;;;5063499;27;94499;-78
2023/06/03 07:47:42;;;;;;;5.13;2.00;;;;;;;;;;5071162;27;92534;-77
2023/06/03 07:50:21;;;;;;;5.70;1.60;;;;;;;;;;5060690;27;95472;-77
2023/06/03 07:52:52;;;;;;;5.72;1.80;;;;;;;;;;5063809;27;91590;-77
2023/06/03 07:55:18;;;;;;;5.25;1.80;;;;;;;;;;5076977;27;92825;-75
2023/06/03 07:57:46;;;;;;;7.60;1.90;;;;;;;;;;5078603;27;92822;-76
2023/06/03 08:00:14;;;;;;;5.35;1.73;;;;;;;;;;5076993;27;94970;-76
2023/06/03 08:02:40;;;;;;;6.50;1.75;;;;;;;;;;5078745;27;95097;-78
2023/06/03 08:05:07;;;;;;;5.68;1.70;;;;;;;;;;5078061;27;92411;-78
2023/06/03 08:07:34;;;;;;;5.40;1.70;;;;;;;;;;5079117;27;92294;-78
2023/06/03 08:10:00;;;;;;;8.40;1.75;;;;;;;;;;5064635;27;92758;-77
2023/06/03 08:12:29;;;;;;;7.07;1.60;;;;;;;;;;5060087;27;92109;-78
2023/06/03 08:14:56;;;;;;;6.10;1.88;;;;;;;;;;5068281;27;92793;-77
2023/06/03 08:17:35;;;;;;;6.47;1.60;;;;;;;;;;5060312;27;95629;-77
2023/06/03 08:20:09;;;;;;;6.28;1.45;;;;;;;;;;5079782;27;92131;-77
2023/06/03 08:22:36;;;;;;;4.47;1.55;;;;;;;;;;5056516;27;92510;-77
2023/06/03 08:25:03;;;;;;;6.28;1.58;;;;;;;;;;5076756;27;94924;-77
2023/06/03 08:27:31;;;;;;;5.28;1.63;;;;;;;;;;5079643;27;92507;-77
2023/06/03 08:29:58;;;;;;;4.72;1.42;;;;;;;;;;5076917;27;92381;-76
2023/06/03 08:32:24;;;;;;;4.70;1.52;;;;;;;;;;5078095;27;95076;-77
2023/06/03 08:34:51;;;;;;;5.22;1.50;;;;;;;;;;5070353;27;92571;-78
2023/06/03 08:37:18;;;;;;;3.65;1.50;;;;;;;;;;5069976;27;95141;-78
2023/06/03 08:39:44;;;;;;;4.68;1.42;;;;;;;;;;5064360;27;92085;-77
2023/06/03 08:42:14;;;;;;;5.65;1.63;;;;;;;;;;5064721;27;92732;-78
2023/06/03 08:45:01;;;;;;;3.83;1.30;;;;;;;;;;5078793;27;94411;-78
2023/06/03 08:47:34;;;;;;;4.32;1.42;;;;;;;;;;5061687;27;92334;-77
2023/06/03 08:50:04;;;;;;;4.32;1.38;;;;;;;;;;5077541;27;95024;-77
2023/06/03 08:52:33;;;;;;;4.53;1.30;;;;;;;;;;5065926;27;92665;-78
2023/06/03 08:55:00;;;;;;;5.57;1.80;;;;;;;;;;5084319;27;92068;-78
2023/06/03 08:57:34;;;;;;;6.32;1.73;;;;;;;;;;5081428;27;97500;-78
2023/06/03 09:00:00;;;;;;;;;;;;;;;;;;5066958;27;94290;-78
2023/06/03 09:02:28;;;;;;;5.10;1.40;;;;;;;;;;5063148;27;115960;-77
2023/06/03 09:04:55;;;;;;;3.65;1.33;;;;;;;;;;5045497;27;94970;-76
2023/06/03 09:07:23;;;;;;;3.25;1.30;;;;;;;;;;5063559;27;91489;-78
2023/06/03 09:09:51;;;;;;;3.40;1.20;;;;;;;;;;5062338;27;94162;-78
2023/06/03 09:12:17;;;;;;;4.10;1.45;;;;;;;;;;5063423;27;93092;-78
2023/06/03 09:14:44;;;;;;;4.43;1.30;;;;;;;;;;5063816;27;95875;-78
2023/06/03 09:17:10;;;;;;;6.50;1.50;;;;;;;;;;5075019;27;94824;-78
2023/06/03 09:19:37;;;;;;;3.70;1.20;;;;;;;;;;5065479;27;92131;-78
2023/06/03 09:22:05;;;;;;;4.55;1.13;;;;;;;;;;5079085;27;92844;-78
2023/06/03 09:24:31;;;;;;;2.70;1.17;;;;;;;;;;5062533;27;93111;-78
2023/06/03 09:26:58;;;;;;;5.80;1.30;;;;;;;;;;5065942;27;92179;-78
2023/06/03 09:29:24;;;;;;;6.20;1.20;;;;;;;;;;5063599;27;92699;-78
2023/06/03 09:31:52;;;;;;;4.07;1.23;;;;;;;;;;5071953;27;94518;-78
2023/06/03 09:34:18;;;;;;;6.00;1.30;;;;;;;;;;5072306;27;92343;-77
2023/06/03 09:36:46;;;;;;;3.85;1.02;;;;;;;;;;5077341;27;92774;-77
2023/06/03 09:39:16;;;;;;;3.20;1.05;;;;;;;;;;5064293;27;94874;-77
2023/06/03 09:41:43;;;;;;;2.65;1.10;;;;;;;;;;5057547;27;96244;-77
2023/06/03 09:44:11;;;;;;;3.30;1.10;;;;;;;;;;5075088;27;92765;-77
2023/06/03 09:46:38;;;;;;;3.53;1.17;;;;;;;;;;5074198;27;92096;-77
2023/06/03 09:49:09;;;;;;;3.17;1.30;;;;;;;;;;5073781;27;92492;-78
2023/06/03 09:51:39;;;;;;;2.38;1.20;;;;;;;;;;5067633;27;94172;-78
2023/06/03 09:54:11;;;;;;;4.80;1.50;;;;;;;;;;5061087;27;92065;-76
2023/06/03 09:56:38;;;;;;;4.82;1.30;;;;;;;;;;5066964;27;92153;-76
2023/06/03 09:59:16;;;;;;;5.10;1.40;;;;;;;;;;5072540;27;92704;-77
2023/06/03 10:01:46;;;;;;;4.80;1.35;;;;;;;;;;5072993;27;94929;-77
2023/06/03 10:04:17;;;;;;;3.47;1.23;;;;;;;;;;5067570;27;95639;-76
2023/06/03 10:06:44;;;;;;;2.67;1.00;;;;;;;;;;5082825;27;92130;-76
2023/06/03 10:09:18;;;;;;;5.97;1.67;;;;;;;;;;5072727;27;93511;-77
2023/06/03 10:11:48;;;;;;;4.38;1.42;;;;;;;;;;5075779;27;94938;-77
2023/06/03 10:14:15;;;;;;;4.70;1.45;;;;;;;;;;5076678;27;92775;-76
2023/06/03 10:17:00;;;;;;;5.50;1.30;;;;;;;;;;5056606;27;92745;-77
2023/06/03 10:19:27;;;;;;;2.55;1.20;;;;;;;;;;5061820;27;97994;-77
2023/06/03 10:21:54;;;;;;;2.28;1.00;;;;;;;;;;5068534;27;91324;-77
2023/06/03 10:24:22;;;;;;;5.07;1.30;;;;;;;;;;5066685;27;92837;-78
2023/06/03 10:26:48;;;;;;;2.88;1.20;;;;;;;;;;5082234;27;92021;-78
2023/06/03 10:29:15;;;;;;;2.80;1.10;;;;;;;;;;5076233;27;94728;-77
2023/06/03 10:31:44;;;;;;;2.88;1.10;;;;;;;;;;5074322;27;95003;-78
2023/06/03 10:34:14;;;;;;;2.58;1.02;;;;;;;;;;5070377;27;92153;-77
2023/06/03 10:36:41;;;;;;;4.07;1.08;;;;;;;;;;5060860;27;92403;-78
2023/06/03 10:39:10;;;;;;;3.53;1.02;;;;;;;;;;5060420;27;94066;-77
2023/06/03 10:41:40;;;;;;;3.47;1.17;;;;;;;;;;5060478;27;92301;-77
2023/06/03 10:44:06;;;;;;;2.10;1.00;;;;;;;;;;5067767;27;92003;-77
2023/06/03 10:46:34;;;;;;;2.53;1.10;;;;;;;;;;5067712;27;91741;-76
2023/06/03 10:49:03;;;;;;;3.58;1.00;;;;;;;;;;5076237;27;92405;-76
2023/06/03 10:51:37;;;;;;;1.92;0.90;;;;;;;;;;5064637;27;92894;-78
2023/06/03 10:54:04;;;;;;;3.63;1.02;;;;;;;;;;5058705;27;94529;-80
2023/06/03 10:56:30;;;;;;;2.63;0.85;;;;;;;;;;5066811;27;94777;-78
2023/06/03 10:58:59;;;;;;;2.33;0.90;;;;;;;;;;5080747;27;94024;-77
2023/06/03 11:01:46;;;;;;;3.75;0.95;;;;;;;;;;5071801;27;92128;-78
2023/06/03 11:04:17;;;;;;;3.67;1.08;;;;;;;;;;5068958;27;93662;-77
2023/06/03 11:06:43;;;;;;;3.40;1.05;;;;;;;;;;5066400;27;92560;-77
2023/06/03 11:09:15;;;;;;;4.05;1.10;;;;;;;;;;5059281;27;94327;-76
2023/06/03 11:11:42;;;;;;;2.45;1.08;;;;;;;;;;5068140;27;93293;-75
2023/06/03 11:14:09;;;;;;;2.70;1.00;;;;;;;;;;5079633;27;92167;-77
2023/06/03 11:16:58;;;;;;;1.92;0.90;;;;;;;;;;5075361;27;93999;-77
2023/06/03 11:19:31;;;;;;;3.67;1.08;;;;;;;;;;5056692;27;95053;-77
2023/06/03 11:21:58;;;;;;;2.00;0.90;;;;;;;;;;5061145;27;92027;-78
2023/06/03 11:24:40;;;;;;;6.53;1.08;;;;;;;;;;5061199;27;92553;-78
2023/06/03 11:27:09;;;;;;;3.92;1.10;;;;;;;;;;5080609;27;93016;-77
2023/06/03 11:29:56;;;;;;;2.17;0.90;;;;;;;;;;5073872;27;92356;-78
2023/06/03 11:32:24;;;;;;;3.10;1.00;;;;;;;;;;5072927;27;92677;-77
2023/06/03 11:35:04;;;;;;;1.70;0.85;;;;;;;;;;5074900;27;92261;-78
2023/06/03 11:37:40;;;;;;;2.22;0.90;;;;;;;;;;5082042;27;97434;-79
2023/06/03 11:40:09;;;;;;;2.53;0.90;;;;;;;;;;5066215;27;93370;-79
2023/06/03 11:42:50;;;;;;;1.60;0.80;;;;;;;;;;5080174;27;92469;-79
2023/06/03 11:45:29;;;;;;;3.58;0.90;;;;;;;;;;5068547;27;95513;-79
2023/06/03 11:48:07;;;;;;;6.35;1.05;;;;;;;;;;5077019;27;101173;-78
2023/06/03 11:50:43;;;;;;;2.55;0.90;;;;;;;;;;5082976;27;92279;-78
2023/06/03 11:53:26;;;;;;;3.03;0.82;;;;;;;;;;5077601;27;92696;-80
2023/06/03 11:55:59;;;;;;;3.03;1.00;;;;;;;;;;5081728;27;92328;-78
2023/06/03 11:58:26;;;;;;;;;;;;;;;;;;5082456;27;93191;-78
2023/06/03 12:01:05;;;;;;;4.68;0.90;;;;;;;;;;5080815;27;115247;-77
2023/06/03 12:03:33;;;;;;;1.30;0.80;;;;;;;;;;5079782;27;91471;-78
2023/06/03 12:06:02;;;;;;;1.67;0.70;;;;;;;;;;5078305;27;92554;-79
2023/06/03 12:08:41;;;;;;;2.50;0.90;;;;;;;;;;5080168;27;92708;-78
2023/06/03 12:11:08;;;;;;;2.60;1.08;;;;;;;;;;5074606;27;94586;-78
2023/06/03 12:13:39;;;;;;;1.40;0.80;;;;;;;;;;5067059;27;97053;-78
2023/06/03 12:16:06;;;;;;;1.95;0.77;;;;;;;;;;5081738;27;93478;-77
2023/06/03 12:18:32;;;;;;;3.85;1.10;;;;;;;;;;5084836;27;93698;-78
2023/06/03 12:21:18;;;;;;;2.58;0.70;;;;;;;;;;5078716;27;95270;-78
2023/06/03 12:23:45;;;;;;;2.42;0.85;;;;;;;;;;5071894;27;92815;-78
2023/06/03 12:26:11;;;;;;;2.60;0.70;;;;;;;;;;5052361;27;94110;-78
2023/06/03 12:28:38;;;;;;;3.05;1.08;;;;;;;;;;5085346;27;92273;-78
2023/06/03 12:31:12;;;;;;;2.58;0.90;;;;;;;;;;5065109;27;92268;-78
2023/06/03 12:33:40;;;;;;;3.55;0.98;;;;;;;;;;5070016;27;95373;-78
2023/06/03 12:36:07;;;;;;;2.72;0.90;;;;;;;;;;5080758;27;97501;-77
2023/06/03 12:38:34;;;;;;;3.17;0.93;;;;;;;;;;5078134;27;94820;-78
2023/06/03 12:41:08;;;;;;;2.67;0.70;;;;;;;;;;5077901;27;93021;-79
2023/06/03 12:43:35;;;;;;;3.13;0.95;;;;;;;;;;5074121;27;92597;-78
2023/06/03 12:46:17;;;;;;;3.03;0.70;;;;;;;;;;5073140;27;92740;-78
2023/06/03 12:48:44;;;;;;;2.47;0.82;;;;;;;;;;5073338;27;93018;-78
2023/06/03 12:51:20;;;;;;;3.75;0.95;;;;;;;;;;5078169;27;93697;-79
2023/06/03 12:53:47;;;;;;;2.20;0.77;;;;;;;;;;5069039;27;92701;-80
2023/06/03 12:56:13;;;;;;;4.10;0.93;;;;;;;;;;5083070;27;92830;-79
2023/06/03 12:58:42;;;;;;;5.30;1.00;;;;;;;;;;5085151;27;92365;-79
2023/06/03 13:01:09;;;;;;;3.35;1.05;;;;;;;;;;5078895;27;96058;-78
2023/06/03 13:03:36;;;;;;;2.45;0.80;;;;;;;;;;5083825;27;92602;-79
2023/06/03 13:06:02;;;;;;;5.07;1.00;;;;;;;;;;5069623;27;92678;-79
2023/06/03 13:08:29;;;;;;;3.53;0.77;;;;;;;;;;5063277;27;93477;-78
2023/06/03 13:10:56;;;;;;;2.33;0.90;;;;;;;;;;5068553;27;92057;-78
2023/06/03 13:13:22;;;;;;;2.05;0.82;;;;;;;;;;5063537;27;93271;-79
2023/06/03 13:15:49;;;;;;;4.43;1.10;;;;;;;;;;5065820;27;94044;-78
2023/06/03 13:18:16;;;;;;;4.35;0.80;;;;;;;;;;5069879;27;94693;-79
2023/06/03 13:20:43;;;;;;;2.08;0.68;;;;;;;;;;5066200;27;92625;-79
2023/06/03 13:23:09;;;;;;;3.90;0.80;;;;;;;;;;5072610;27;92279;-79
2023/06/03 13:25:36;;;;;;;3.05;0.77;;;;;;;;;;5053903;27;95157;-79
2023/06/03 13:28:03;;;;;;;2.28;0.80;;;;;;;;;;5074641;27;92700;-79
2023/06/03 13:30:29;;;;;;;3.08;0.88;;;;;;;;;;5075144;27;92262;-78
2023/06/03 13:32:56;;;;;;;4.43;0.80;;;;;;;;;;5075613;27;94526;-78
2023/06/03 13:35:22;;;;;;;2.10;0.90;;;;;;;;;;5076281;27;95939;-78
2023/06/03 13:37:49;;;;;;;2.13;0.77;;;;;;;;;;5068908;27;92172;-80
2023/06/03 13:40:16;;;;;;;2.00;0.70;;;;;;;;;;5078707;27;94594;-79
2023/06/03 13:42:43;;;;;;;2.85;1.02;;;;;;;;;;5078025;27;91307;-79
2023/06/03 13:45:10;;;;;;;3.92;0.70;;;;;;;;;;5068811;27;92008;-78
2023/06/03 13:47:36;;;;;;;1.45;0.80;;;;;;;;;;5075134;27;92806;-79
2023/06/03 13:50:04;;;;;;;2.85;0.73;;;;;;;;;;5079578;27;94663;-79
2023/06/03 13:52:31;;;;;;;2.58;0.70;;;;;;;;;;5068856;27;96532;-76
2023/06/03 13:54:57;;;;;;;3.03;0.80;;;;;;;;;;5068694;27;93448;-76
2023/06/03 13:57:24;;;;;;;2.60;0.80;;;;;;;;;;5068835;27;92859;-77
2023/06/03 13:59:51;;;;;;;3.78;0.60;;;;;;;;;;5073450;27;93190;-79
2023/06/03 14:02:17;;;;;;;3.08;1.00;;;;;;;;;;5073870;27;94209;-78
2023/06/03 14:04:44;;;;;;;1.20;0.70;;;;;;;;;;5071137;27;92242;-78
2023/06/03 14:07:11;;;;;;;1.48;0.77;;;;;;;;;;5072388;27;93251;-78
2023/06/03 14:09:37;;;;;;;2.50;0.70;;;;;;;;;;5073326;27;92475;-76
2023/06/03 14:12:04;;;;;;;2.45;0.70;;;;;;;;;;5075169;27;92542;-76
2023/06/03 14:14:31;;;;;;;2.38;0.70;;;;;;;;;;5070735;27;97335;-78
2023/06/03 14:16:58;;;;;;;5.57;0.90;;;;;;;;;;5062736;27;94569;-78
2023/06/03 14:19:24;;;;;;;5.22;1.10;;;;;;;;;;5063468;27;93539;-78
2023/06/03 14:21:51;;;;;;;3.70;0.88;;;;;;;;;;5070451;27;92740;-77
2023/06/03 14:24:17;;;;;;;3.33;1.00;;;;;;;;;;5080107;27;93582;-78
2023/06/03 14:26:44;;;;;;;2.33;0.90;;;;;;;;;;5079118;27;92645;-79
2023/06/03 14:29:11;;;;;;;4.20;0.90;;;;;;;;;;5074370;27;92526;-76
2023/06/03 14:31:37;;;;;;;3.75;1.20;;;;;;;;;;5070392;27;92703;-78
2023/06/03 14:34:04;;;;;;;3.15;1.38;;;;;;;;;;5069497;27;93084;-78
2023/06/03 14:36:31;;;;;;;3.20;1.02;;;;;;;;;;5080705;27;94053;-79
2023/06/03 14:38:58;;;;;;;2.97;1.10;;;;;;;;;;5070977;27;94924;-78
2023/06/03 14:41:26;;;;;;;3.58;1.10;;;;;;;;;;5072815;27;92166;-77
2023/06/03 14:43:53;;;;;;;4.05;1.30;;;;;;;;;;5074627;27;92272;-78
2023/06/03 14:46:20;;;;;;;3.25;1.15;;;;;;;;;;5069453;27;94060;-77
2023/06/03 14:48:47;;;;;;;3.53;1.20;;;;;;;;;;5064757;27;92323;-78
2023/06/03 14:51:13;;;;;;;4.97;1.00;;;;;;;;;;5076028;27;94505;-77
2023/06/03 14:53:40;;;;;;;3.50;1.00;;;;;;;;;;5067178;27;92626;-77